sensor_id;sensor_type;location;lat;lon;timestamp;temperature;humidity
29803;DHT22;16702;50.898;4.662;2023-06-14T00:01:26;25.30;72.50
29803;DHT22;16702;50.898;4.662;2023-06-14T00:03:57;25.30;73.00
29803;DHT22;16702;50.898;4.662;2023-06-14T00:06:28;25.20;72.70
29803;DHT22;16702;50.898;4.662;2023-06-14T00:09:01;25.20;72.50
29803;DHT22;16702;50.898;4.662;2023-06-14T00:11:34;25.20;73.20
29803;DHT22;16702;50.898;4.662;2023-06-14T00:14:05;25.10;72.70
29803;DHT22;16702;50.898;4.662;2023-06-14T00:16:35;25.00;73.10
29803;DHT22;16702;50.898;4.662;2023-06-14T00:19:06;25.00;74.00
29803;DHT22;16702;50.898;4.662;2023-06-14T00:21:38;24.90;73.70
29803;DHT22;16702;50.898;4.662;2023-06-14T00:24:09;24.90;73.80
29803;DHT22;16702;50.898;4.662;2023-06-14T00:26:42;24.80;74.30
29803;DHT22;16702;50.898;4.662;2023-06-14T00:29:12;24.80;73.90
29803;DHT22;16702;50.898;4.662;2023-06-14T00:31:43;24.70;73.90
29803;DHT22;16702;50.898;4.662;2023-06-14T00:34:13;24.70;73.90
29803;DHT22;16702;50.898;4.662;2023-06-14T00:36:44;24.60;73.60
29803;DHT22;16702;50.898;4.662;2023-06-14T00:39:14;24.60;74.20
29803;DHT22;16702;50.898;4.662;2023-06-14T00:41:50;24.50;74.90
29803;DHT22;16702;50.898;4.662;2023-06-14T00:44:24;24.50;74.50
29803;DHT22;16702;50.898;4.662;2023-06-14T00:46:57;24.60;74.90
29803;DHT22;16702;50.898;4.662;2023-06-14T00:49:30;24.50;75.10
29803;DHT22;16702;50.898;4.662;2023-06-14T00:52:01;24.40;75.30
29803;DHT22;16702;50.898;4.662;2023-06-14T00:54:32;24.40;75.30
29803;DHT22;16702;50.898;4.662;2023-06-14T00:57:06;24.30;75.80
29803;DHT22;16702;50.898;4.662;2023-06-14T00:59:42;24.30;75.80
29803;DHT22;16702;50.898;4.662;2023-06-14T01:02:18;24.20;75.80
29803;DHT22;16702;50.898;4.662;2023-06-14T01:04:51;24.10;76.20
29803;DHT22;16702;50.898;4.662;2023-06-14T01:07:33;24.10;76.10
29803;DHT22;16702;50.898;4.662;2023-06-14T01:10:16;24.00;76.00
29803;DHT22;16702;50.898;4.662;2023-06-14T01:12:58;24.10;76.60
29803;DHT22;16702;50.898;4.662;2023-06-14T01:15:30;24.00;76.70
29803;DHT22;16702;50.898;4.662;2023-06-14T01:18:02;23.90;76.50
29803;DHT22;16702;50.898;4.662;2023-06-14T01:20:34;23.90;76.90
29803;DHT22;16702;50.898;4.662;2023-06-14T01:23:10;23.80;77.20
29803;DHT22;16702;50.898;4.662;2023-06-14T01:25:40;23.70;77.40
29803;DHT22;16702;50.898;4.662;2023-06-14T01:28:12;23.70;77.50
29803;DHT22;16702;50.898;4.662;2023-06-14T01:30:47;23.70;77.50
29803;DHT22;16702;50.898;4.662;2023-06-14T01:33:21;23.60;78.00
29803;DHT22;16702;50.898;4.662;2023-06-14T01:35:53;23.50;78.00
29803;DHT22;16702;50.898;4.662;2023-06-14T01:38:28;23.60;78.10
29803;DHT22;16702;50.898;4.662;2023-06-14T01:41:02;23.50;78.10
29803;DHT22;16702;50.898;4.662;2023-06-14T01:43:34;23.50;78.30
29803;DHT22;16702;50.898;4.662;2023-06-14T01:46:06;23.40;78.80
29803;DHT22;16702;50.898;4.662;2023-06-14T01:48:37;23.40;78.60
29803;DHT22;16702;50.898;4.662;2023-06-14T01:51:07;23.30;79.00
29803;DHT22;16702;50.898;4.662;2023-06-14T01:53:40;23.30;78.10
29803;DHT22;16702;50.898;4.662;2023-06-14T01:56:11;23.30;79.00
29803;DHT22;16702;50.898;4.662;2023-06-14T01:58:42;23.20;79.10
29803;DHT22;16702;50.898;4.662;2023-06-14T02:01:13;23.20;79.40
29803;DHT22;16702;50.898;4.662;2023-06-14T02:03:47;23.20;78.80
29803;DHT22;16702;50.898;4.662;2023-06-14T02:06:19;23.10;78.80
29803;DHT22;16702;50.898;4.662;2023-06-14T02:08:52;23.10;79.40
29803;DHT22;16702;50.898;4.662;2023-06-14T02:11:23;23.10;79.30
29803;DHT22;16702;50.898;4.662;2023-06-14T02:13:55;23.00;79.50
29803;DHT22;16702;50.898;4.662;2023-06-14T02:16:28;23.00;80.10
29803;DHT22;16702;50.898;4.662;2023-06-14T02:19:03;23.00;80.30
29803;DHT22;16702;50.898;4.662;2023-06-14T02:21:36;22.90;80.00
29803;DHT22;16702;50.898;4.662;2023-06-14T02:24:11;22.90;80.10
29803;DHT22;16702;50.898;4.662;2023-06-14T02:26:41;22.90;80.20
29803;DHT22;16702;50.898;4.662;2023-06-14T02:29:14;22.80;80.30
29803;DHT22;16702;50.898;4.662;2023-06-14T02:31:45;22.80;80.90
29803;DHT22;16702;50.898;4.662;2023-06-14T02:34:20;22.70;80.80
29803;DHT22;16702;50.898;4.662;2023-06-14T02:36:51;22.70;80.90
29803;DHT22;16702;50.898;4.662;2023-06-14T02:39:25;22.60;81.00
29803;DHT22;16702;50.898;4.662;2023-06-14T02:41:55;22.60;80.90
29803;DHT22;16702;50.898;4.662;2023-06-14T02:44:27;22.60;80.90
29803;DHT22;16702;50.898;4.662;2023-06-14T02:46:59;22.60;80.80
29803;DHT22;16702;50.898;4.662;2023-06-14T02:49:30;22.50;81.90
29803;DHT22;16702;50.898;4.662;2023-06-14T02:52:01;22.50;81.80
29803;DHT22;16702;50.898;4.662;2023-06-14T02:54:35;22.40;82.10
29803;DHT22;16702;50.898;4.662;2023-06-14T02:57:06;22.40;82.30
29803;DHT22;16702;50.898;4.662;2023-06-14T02:59:40;22.40;82.30
29803;DHT22;16702;50.898;4.662;2023-06-14T03:02:11;22.30;82.50
29803;DHT22;16702;50.898;4.662;2023-06-14T03:04:43;22.30;82.60
29803;DHT22;16702;50.898;4.662;2023-06-14T03:07:17;22.30;82.60
29803;DHT22;16702;50.898;4.662;2023-06-14T03:09:53;22.20;82.60
29803;DHT22;16702;50.898;4.662;2023-06-14T03:12:25;22.20;82.50
29803;DHT22;16702;50.898;4.662;2023-06-14T03:14:56;22.10;82.70
29803;DHT22;16702;50.898;4.662;2023-06-14T03:17:33;22.10;83.00
29803;DHT22;16702;50.898;4.662;2023-06-14T03:20:08;22.10;83.20
29803;DHT22;16702;50.898;4.662;2023-06-14T03:22:39;22.00;83.30
29803;DHT22;16702;50.898;4.662;2023-06-14T03:25:16;22.00;83.50
29803;DHT22;16702;50.898;4.662;2023-06-14T03:27:51;21.90;83.20
29803;DHT22;16702;50.898;4.662;2023-06-14T03:30:22;21.90;83.30
29803;DHT22;16702;50.898;4.662;2023-06-14T03:32:53;21.90;83.30
29803;DHT22;16702;50.898;4.662;2023-06-14T03:35:27;21.80;83.30
29803;DHT22;16702;50.898;4.662;2023-06-14T03:37:58;21.80;83.70
29803;DHT22;16702;50.898;4.662;2023-06-14T03:40:33;21.80;83.90
29803;DHT22;16702;50.898;4.662;2023-06-14T03:43:06;21.80;83.50
29803;DHT22;16702;50.898;4.662;2023-06-14T03:45:38;21.70;84.20
29803;DHT22;16702;50.898;4.662;2023-06-14T03:48:09;21.70;84.60
29803;DHT22;16702;50.898;4.662;2023-06-14T03:50:40;21.70;84.40
29803;DHT22;16702;50.898;4.662;2023-06-14T03:53:12;21.70;84.10
29803;DHT22;16702;50.898;4.662;2023-06-14T03:55:50;21.70;84.50
29803;DHT22;16702;50.898;4.662;2023-06-14T03:58:30;21.60;85.30
29803;DHT22;16702;50.898;4.662;2023-06-14T04:01:01;21.60;85.40
29803;DHT22;16702;50.898;4.662;2023-06-14T04:03:32;21.50;85.30
29803;DHT22;16702;50.898;4.662;2023-06-14T04:06:04;21.50;85.50
29803;DHT22;16702;50.898;4.662;2023-06-14T04:08:35;21.50;85.90
29803;DHT22;16702;50.898;4.662;2023-06-14T04:11:10;21.50;85.50
29803;DHT22;16702;50.898;4.662;2023-06-14T04:13:41;21.50;86.20
29803;DHT22;16702;50.898;4.662;2023-06-14T04:16:11;21.50;86.60
29803;DHT22;16702;50.898;4.662;2023-06-14T04:18:43;21.50;86.70
29803;DHT22;16702;50.898;4.662;2023-06-14T04:21:14;21.50;87.30
29803;DHT22;16702;50.898;4.662;2023-06-14T04:23:46;21.40;87.20
29803;DHT22;16702;50.898;4.662;2023-06-14T04:26:26;21.40;87.50
29803;DHT22;16702;50.898;4.662;2023-06-14T04:28:58;21.40;87.60
29803;DHT22;16702;50.898;4.662;2023-06-14T04:31:33;21.40;88.10
29803;DHT22;16702;50.898;4.662;2023-06-14T04:34:08;21.40;87.70
29803;DHT22;16702;50.898;4.662;2023-06-14T04:36:51;21.40;88.20
29803;DHT22;16702;50.898;4.662;2023-06-14T04:39:30;21.40;88.50
29803;DHT22;16702;50.898;4.662;2023-06-14T04:42:04;21.40;89.10
29803;DHT22;16702;50.898;4.662;2023-06-14T04:44:36;21.40;88.40
29803;DHT22;16702;50.898;4.662;2023-06-14T04:47:08;21.40;88.60
29803;DHT22;16702;50.898;4.662;2023-06-14T04:49:42;21.40;88.40
29803;DHT22;16702;50.898;4.662;2023-06-14T04:52:13;21.40;87.70
29803;DHT22;16702;50.898;4.662;2023-06-14T04:54:45;21.40;88.80
29803;DHT22;16702;50.898;4.662;2023-06-14T04:57:21;21.40;90.00
29803;DHT22;16702;50.898;4.662;2023-06-14T04:59:57;21.40;89.80
29803;DHT22;16702;50.898;4.662;2023-06-14T05:02:32;21.40;90.00
29803;DHT22;16702;50.898;4.662;2023-06-14T05:05:05;21.40;90.10
29803;DHT22;16702;50.898;4.662;2023-06-14T05:07:36;21.40;90.30
29803;DHT22;16702;50.898;4.662;2023-06-14T05:10:09;21.50;90.10
29803;DHT22;16702;50.898;4.662;2023-06-14T05:12:44;21.50;90.30
29803;DHT22;16702;50.898;4.662;2023-06-14T05:15:17;21.50;89.20
29803;DHT22;16702;50.898;4.662;2023-06-14T05:17:53;21.40;88.70
29803;DHT22;16702;50.898;4.662;2023-06-14T05:20:25;21.40;90.60
29803;DHT22;16702;50.898;4.662;2023-06-14T05:22:56;21.50;89.70
29803;DHT22;16702;50.898;4.662;2023-06-14T05:25:26;21.50;88.70
29803;DHT22;16702;50.898;4.662;2023-06-14T05:28:00;21.50;87.20
29803;DHT22;16702;50.898;4.662;2023-06-14T05:30:32;21.60;86.90
29803;DHT22;16702;50.898;4.662;2023-06-14T05:33:03;21.60;87.10
29803;DHT22;16702;50.898;4.662;2023-06-14T05:35:34;21.60;88.30
29803;DHT22;16702;50.898;4.662;2023-06-14T05:38:05;21.70;88.90
29803;DHT22;16702;50.898;4.662;2023-06-14T05:40:36;21.60;88.10
29803;DHT22;16702;50.898;4.662;2023-06-14T05:43:09;21.60;88.30
29803;DHT22;16702;50.898;4.662;2023-06-14T05:45:40;21.70;88.90
29803;DHT22;16702;50.898;4.662;2023-06-14T05:48:11;21.80;88.80
29803;DHT22;16702;50.898;4.662;2023-06-14T05:50:41;21.80;88.20
29803;DHT22;16702;50.898;4.662;2023-06-14T05:53:12;21.80;86.20
29803;DHT22;16702;50.898;4.662;2023-06-14T05:55:42;21.80;87.60
29803;DHT22;16702;50.898;4.662;2023-06-14T05:58:16;21.80;86.80
29803;DHT22;16702;50.898;4.662;2023-06-14T06:00:47;21.90;86.80
29803;DHT22;16702;50.898;4.662;2023-06-14T06:03:21;21.90;88.00
29803;DHT22;16702;50.898;4.662;2023-06-14T06:05:52;22.00;87.90
29803;DHT22;16702;50.898;4.662;2023-06-14T06:08:22;22.00;86.70
29803;DHT22;16702;50.898;4.662;2023-06-14T06:10:53;22.00;86.80
29803;DHT22;16702;50.898;4.662;2023-06-14T06:13:26;22.00;85.90
29803;DHT22;16702;50.898;4.662;2023-06-14T06:15:57;22.00;87.40
29803;DHT22;16702;50.898;4.662;2023-06-14T06:18:27;22.10;86.80
29803;DHT22;16702;50.898;4.662;2023-06-14T06:20:58;22.10;87.60
29803;DHT22;16702;50.898;4.662;2023-06-14T06:23:30;22.20;88.20
29803;DHT22;16702;50.898;4.662;2023-06-14T06:26:01;22.20;87.50
29803;DHT22;16702;50.898;4.662;2023-06-14T06:28:34;22.20;87.40
29803;DHT22;16702;50.898;4.662;2023-06-14T06:31:05;22.30;86.80
29803;DHT22;16702;50.898;4.662;2023-06-14T06:33:35;22.30;86.00
29803;DHT22;16702;50.898;4.662;2023-06-14T06:36:07;22.30;85.70
29803;DHT22;16702;50.898;4.662;2023-06-14T06:38:39;22.30;86.00
29803;DHT22;16702;50.898;4.662;2023-06-14T06:41:09;22.40;87.10
29803;DHT22;16702;50.898;4.662;2023-06-14T06:43:42;22.50;86.50
29803;DHT22;16702;50.898;4.662;2023-06-14T06:46:16;22.60;85.80
29803;DHT22;16702;50.898;4.662;2023-06-14T06:48:46;22.60;85.00
29803;DHT22;16702;50.898;4.662;2023-06-14T06:51:17;22.70;87.30
29803;DHT22;16702;50.898;4.662;2023-06-14T06:53:52;22.70;87.40
29803;DHT22;16702;50.898;4.662;2023-06-14T06:56:23;22.70;85.00
29803;DHT22;16702;50.898;4.662;2023-06-14T06:58:56;22.80;85.60
29803;DHT22;16702;50.898;4.662;2023-06-14T07:01:27;22.80;85.00
29803;DHT22;16702;50.898;4.662;2023-06-14T07:04:01;22.80;84.50
29803;DHT22;16702;50.898;4.662;2023-06-14T07:06:31;22.90;84.60
29803;DHT22;16702;50.898;4.662;2023-06-14T07:09:02;22.90;85.30
29803;DHT22;16702;50.898;4.662;2023-06-14T07:11:35;22.90;84.90
29803;DHT22;16702;50.898;4.662;2023-06-14T07:14:08;23.00;85.50
29803;DHT22;16702;50.898;4.662;2023-06-14T07:16:39;23.00;84.70
29803;DHT22;16702;50.898;4.662;2023-06-14T07:19:10;23.10;85.10
29803;DHT22;16702;50.898;4.662;2023-06-14T07:21:41;23.10;84.70
29803;DHT22;16702;50.898;4.662;2023-06-14T07:24:11;23.20;85.40
29803;DHT22;16702;50.898;4.662;2023-06-14T07:26:42;23.20;84.50
29803;DHT22;16702;50.898;4.662;2023-06-14T07:29:15;23.30;85.40
29803;DHT22;16702;50.898;4.662;2023-06-14T07:31:47;23.30;84.70
29803;DHT22;16702;50.898;4.662;2023-06-14T07:34:17;23.40;84.80
29803;DHT22;16702;50.898;4.662;2023-06-14T07:36:48;23.40;85.00
29803;DHT22;16702;50.898;4.662;2023-06-14T07:39:18;23.40;84.60
29803;DHT22;16702;50.898;4.662;2023-06-14T07:41:49;23.40;84.70
29803;DHT22;16702;50.898;4.662;2023-06-14T07:44:23;23.50;84.40
29803;DHT22;16702;50.898;4.662;2023-06-14T07:46:53;23.50;84.00
29803;DHT22;16702;50.898;4.662;2023-06-14T07:49:25;23.50;83.60
29803;DHT22;16702;50.898;4.662;2023-06-14T07:51:56;23.60;83.50
29803;DHT22;16702;50.898;4.662;2023-06-14T07:54:27;23.70;83.70
29803;DHT22;16702;50.898;4.662;2023-06-14T07:56:57;23.70;83.50
29803;DHT22;16702;50.898;4.662;2023-06-14T07:59:31;23.60;83.10
29803;DHT22;16702;50.898;4.662;2023-06-14T08:02:02;23.70;81.40
29803;DHT22;16702;50.898;4.662;2023-06-14T08:04:45;23.80;83.00
29803;DHT22;16702;50.898;4.662;2023-06-14T08:07:15;23.80;83.00
29803;DHT22;16702;50.898;4.662;2023-06-14T08:09:46;23.90;84.40
29803;DHT22;16702;50.898;4.662;2023-06-14T08:12:17;24.10;85.10
29803;DHT22;16702;50.898;4.662;2023-06-14T08:14:47;24.10;84.90
29803;DHT22;16702;50.898;4.662;2023-06-14T08:17:39;24.20;85.90
29803;DHT22;16702;50.898;4.662;2023-06-14T08:20:13;24.20;85.10
29803;DHT22;16702;50.898;4.662;2023-06-14T08:22:44;24.30;86.10
29803;DHT22;16702;50.898;4.662;2023-06-14T08:25:15;24.30;84.80
29803;DHT22;16702;50.898;4.662;2023-06-14T08:27:46;24.30;84.20
29803;DHT22;16702;50.898;4.662;2023-06-14T08:30:17;24.30;83.60
29803;DHT22;16702;50.898;4.662;2023-06-14T08:32:53;24.40;84.70
29803;DHT22;16702;50.898;4.662;2023-06-14T08:35:44;24.50;84.20
29803;DHT22;16702;50.898;4.662;2023-06-14T08:38:15;24.50;84.30
29803;DHT22;16702;50.898;4.662;2023-06-14T08:40:48;24.60;84.30
29803;DHT22;16702;50.898;4.662;2023-06-14T08:43:20;24.70;84.10
29803;DHT22;16702;50.898;4.662;2023-06-14T08:45:53;24.70;85.00
29803;DHT22;16702;50.898;4.662;2023-06-14T08:48:29;24.70;83.90
29803;DHT22;16702;50.898;4.662;2023-06-14T08:51:04;24.80;82.50
29803;DHT22;16702;50.898;4.662;2023-06-14T08:53:36;24.80;84.00
29803;DHT22;16702;50.898;4.662;2023-06-14T08:56:09;24.90;84.30
29803;DHT22;16702;50.898;4.662;2023-06-14T08:58:44;25.00;83.20
29803;DHT22;16702;50.898;4.662;2023-06-14T09:01:15;25.00;82.30
29803;DHT22;16702;50.898;4.662;2023-06-14T09:03:48;25.00;82.70
29803;DHT22;16702;50.898;4.662;2023-06-14T09:06:23;25.10;80.80
29803;DHT22;16702;50.898;4.662;2023-06-14T09:08:56;25.20;82.40
29803;DHT22;16702;50.898;4.662;2023-06-14T09:11:27;25.20;82.20
29803;DHT22;16702;50.898;4.662;2023-06-14T09:13:58;25.20;81.30
29803;DHT22;16702;50.898;4.662;2023-06-14T09:16:32;25.20;80.80
29803;DHT22;16702;50.898;4.662;2023-06-14T09:19:03;25.40;82.40
29803;DHT22;16702;50.898;4.662;2023-06-14T09:21:37;25.50;81.20
29803;DHT22;16702;50.898;4.662;2023-06-14T09:24:13;25.50;81.60
29803;DHT22;16702;50.898;4.662;2023-06-14T09:26:47;25.50;79.70
29803;DHT22;16702;50.898;4.662;2023-06-14T09:29:18;25.70;80.10
29803;DHT22;16702;50.898;4.662;2023-06-14T09:31:49;25.70;77.70
29803;DHT22;16702;50.898;4.662;2023-06-14T09:34:20;25.70;78.90
29803;DHT22;16702;50.898;4.662;2023-06-14T09:36:54;25.70;77.60
29803;DHT22;16702;50.898;4.662;2023-06-14T09:39:25;25.90;76.10
29803;DHT22;16702;50.898;4.662;2023-06-14T09:41:55;25.90;75.90
29803;DHT22;16702;50.898;4.662;2023-06-14T09:44:26;25.90;76.40
29803;DHT22;16702;50.898;4.662;2023-06-14T09:46:58;26.00;72.60
29803;DHT22;16702;50.898;4.662;2023-06-14T09:49:29;25.90;72.30
29803;DHT22;16702;50.898;4.662;2023-06-14T09:52:04;26.10;73.30
29803;DHT22;16702;50.898;4.662;2023-06-14T09:54:39;26.10;73.10
29803;DHT22;16702;50.898;4.662;2023-06-14T09:57:11;26.10;71.70
29803;DHT22;16702;50.898;4.662;2023-06-14T09:59:45;26.20;72.80
29803;DHT22;16702;50.898;4.662;2023-06-14T10:02:22;26.20;70.60
29803;DHT22;16702;50.898;4.662;2023-06-14T10:04:58;26.40;72.60
29803;DHT22;16702;50.898;4.662;2023-06-14T10:07:41;26.50;71.20
29803;DHT22;16702;50.898;4.662;2023-06-14T10:10:13;26.50;71.20
29803;DHT22;16702;50.898;4.662;2023-06-14T10:12:44;26.50;70.00
29803;DHT22;16702;50.898;4.662;2023-06-14T10:15:19;26.60;70.00
29803;DHT22;16702;50.898;4.662;2023-06-14T10:17:55;26.60;70.30
29803;DHT22;16702;50.898;4.662;2023-06-14T10:20:33;26.70;69.00
29803;DHT22;16702;50.898;4.662;2023-06-14T10:23:13;26.80;70.20
29803;DHT22;16702;50.898;4.662;2023-06-14T10:25:50;26.80;70.20
29803;DHT22;16702;50.898;4.662;2023-06-14T10:28:21;26.90;68.30
29803;DHT22;16702;50.898;4.662;2023-06-14T10:31:08;26.90;68.60
29803;DHT22;16702;50.898;4.662;2023-06-14T10:33:48;27.00;67.80
29803;DHT22;16702;50.898;4.662;2023-06-14T10:36:28;27.00;67.20
29803;DHT22;16702;50.898;4.662;2023-06-14T10:39:07;27.10;68.30
29803;DHT22;16702;50.898;4.662;2023-06-14T10:41:39;27.20;69.30
29803;DHT22;16702;50.898;4.662;2023-06-14T10:44:38;27.30;68.50
29803;DHT22;16702;50.898;4.662;2023-06-14T10:47:10;27.30;65.00
29803;DHT22;16702;50.898;4.662;2023-06-14T10:49:42;27.30;66.70
29803;DHT22;16702;50.898;4.662;2023-06-14T10:52:14;27.50;67.60
29803;DHT22;16702;50.898;4.662;2023-06-14T10:55:03;27.60;65.90
29803;DHT22;16702;50.898;4.662;2023-06-14T10:57:38;27.60;68.50
29803;DHT22;16702;50.898;4.662;2023-06-14T11:00:13;27.70;65.60
29803;DHT22;16702;50.898;4.662;2023-06-14T11:03:21;27.80;66.10
29803;DHT22;16702;50.898;4.662;2023-06-14T11:05:57;27.90;68.00
29803;DHT22;16702;50.898;4.662;2023-06-14T11:08:45;27.90;65.20
29803;DHT22;16702;50.898;4.662;2023-06-14T11:11:24;28.00;65.80
29803;DHT22;16702;50.898;4.662;2023-06-14T11:14:00;27.90;63.20
29803;DHT22;16702;50.898;4.662;2023-06-14T11:16:31;28.10;65.30
29803;DHT22;16702;50.898;4.662;2023-06-14T11:19:02;28.10;61.70
29803;DHT22;16702;50.898;4.662;2023-06-14T11:21:33;28.10;65.50
29803;DHT22;16702;50.898;4.662;2023-06-14T11:24:09;28.20;65.10
29803;DHT22;16702;50.898;4.662;2023-06-14T11:26:42;28.30;63.60
29803;DHT22;16702;50.898;4.662;2023-06-14T11:29:14;28.20;63.40
29803;DHT22;16702;50.898;4.662;2023-06-14T11:31:45;28.30;63.40
29803;DHT22;16702;50.898;4.662;2023-06-14T11:34:16;28.40;64.00
29803;DHT22;16702;50.898;4.662;2023-06-14T11:36:47;28.50;62.40
29803;DHT22;16702;50.898;4.662;2023-06-14T11:39:23;28.50;62.10
29803;DHT22;16702;50.898;4.662;2023-06-14T11:41:57;28.50;62.40
29803;DHT22;16702;50.898;4.662;2023-06-14T11:44:28;28.50;61.80
29803;DHT22;16702;50.898;4.662;2023-06-14T11:46:59;28.60;64.00
29803;DHT22;16702;50.898;4.662;2023-06-14T11:49:35;28.70;64.00
29803;DHT22;16702;50.898;4.662;2023-06-14T11:52:07;28.80;64.40
29803;DHT22;16702;50.898;4.662;2023-06-14T11:54:38;28.80;64.90
29803;DHT22;16702;50.898;4.662;2023-06-14T11:57:12;29.00;64.40
29803;DHT22;16702;50.898;4.662;2023-06-14T11:59:44;28.90;64.00
29803;DHT22;16702;50.898;4.662;2023-06-14T12:02:15;28.90;63.00
29803;DHT22;16702;50.898;4.662;2023-06-14T12:04:48;29.10;63.40
29803;DHT22;16702;50.898;4.662;2023-06-14T12:07:22;29.10;61.70
29803;DHT22;16702;50.898;4.662;2023-06-14T12:10:07;29.10;63.20
29803;DHT22;16702;50.898;4.662;2023-06-14T12:12:41;29.30;61.70
29803;DHT22;16702;50.898;4.662;2023-06-14T12:15:12;29.30;63.40
29803;DHT22;16702;50.898;4.662;2023-06-14T12:17:43;29.30;61.70
29803;DHT22;16702;50.898;4.662;2023-06-14T12:20:14;29.40;62.10
29803;DHT22;16702;50.898;4.662;2023-06-14T12:22:52;29.40;60.30
29803;DHT22;16702;50.898;4.662;2023-06-14T12:25:26;29.50;59.50
29803;DHT22;16702;50.898;4.662;2023-06-14T12:28:05;29.60;61.20
29803;DHT22;16702;50.898;4.662;2023-06-14T12:30:37;29.60;62.30
29803;DHT22;16702;50.898;4.662;2023-06-14T12:33:08;29.60;59.60
29803;DHT22;16702;50.898;4.662;2023-06-14T12:35:39;29.80;60.60
29803;DHT22;16702;50.898;4.662;2023-06-14T12:38:09;29.70;58.90
29803;DHT22;16702;50.898;4.662;2023-06-14T12:40:40;29.70;59.00
29803;DHT22;16702;50.898;4.662;2023-06-14T12:43:13;29.90;58.80
29803;DHT22;16702;50.898;4.662;2023-06-14T12:45:46;30.00;60.20
29803;DHT22;16702;50.898;4.662;2023-06-14T12:48:17;29.80;59.30
29803;DHT22;16702;50.898;4.662;2023-06-14T12:50:48;29.90;58.60
29803;DHT22;16702;50.898;4.662;2023-06-14T12:53:18;30.10;60.80
29803;DHT22;16702;50.898;4.662;2023-06-14T12:55:50;30.30;59.80
29803;DHT22;16702;50.898;4.662;2023-06-14T12:58:23;30.30;58.20
29803;DHT22;16702;50.898;4.662;2023-06-14T13:00:56;30.30;59.00
29803;DHT22;16702;50.898;4.662;2023-06-14T13:03:26;30.30;56.70
29803;DHT22;16702;50.898;4.662;2023-06-14T13:05:57;30.40;58.30
29803;DHT22;16702;50.898;4.662;2023-06-14T13:08:28;30.20;57.90
29803;DHT22;16702;50.898;4.662;2023-06-14T13:10:58;30.20;57.60
29803;DHT22;16702;50.898;4.662;2023-06-14T13:13:32;30.30;57.50
29803;DHT22;16702;50.898;4.662;2023-06-14T13:16:03;30.50;57.30
29803;DHT22;16702;50.898;4.662;2023-06-14T13:18:33;30.60;56.80
29803;DHT22;16702;50.898;4.662;2023-06-14T13:21:04;30.60;57.40
29803;DHT22;16702;50.898;4.662;2023-06-14T13:23:34;30.80;55.90
29803;DHT22;16702;50.898;4.662;2023-06-14T13:26:05;30.60;57.00
29803;DHT22;16702;50.898;4.662;2023-06-14T13:28:38;30.80;56.80
29803;DHT22;16702;50.898;4.662;2023-06-14T13:31:09;30.90;57.50
29803;DHT22;16702;50.898;4.662;2023-06-14T13:33:40;30.90;55.60
29803;DHT22;16702;50.898;4.662;2023-06-14T13:36:11;30.80;56.00
29803;DHT22;16702;50.898;4.662;2023-06-14T13:38:42;31.00;55.80
29803;DHT22;16702;50.898;4.662;2023-06-14T13:41:15;31.00;56.10
29803;DHT22;16702;50.898;4.662;2023-06-14T13:43:48;31.00;55.50
29803;DHT22;16702;50.898;4.662;2023-06-14T13:46:19;31.20;56.20
29803;DHT22;16702;50.898;4.662;2023-06-14T13:48:50;31.10;55.00
29803;DHT22;16702;50.898;4.662;2023-06-14T13:51:21;31.10;54.00
29803;DHT22;16702;50.898;4.662;2023-06-14T13:53:54;31.00;53.90
29803;DHT22;16702;50.898;4.662;2023-06-14T13:56:24;31.20;54.30
29803;DHT22;16702;50.898;4.662;2023-06-14T13:58:57;31.20;54.90
29803;DHT22;16702;50.898;4.662;2023-06-14T14:01:28;31.30;54.20
29803;DHT22;16702;50.898;4.662;2023-06-14T14:03:59;31.00;55.40
29803;DHT22;16702;50.898;4.662;2023-06-14T14:06:29;31.20;54.70
29803;DHT22;16702;50.898;4.662;2023-06-14T14:09:00;31.30;53.90
29803;DHT22;16702;50.898;4.662;2023-06-14T14:11:31;31.60;53.80
29803;DHT22;16702;50.898;4.662;2023-06-14T14:14:05;31.60;54.30
29803;DHT22;16702;50.898;4.662;2023-06-14T14:16:35;31.60;53.90
29803;DHT22;16702;50.898;4.662;2023-06-14T14:19:06;31.50;53.30
29803;DHT22;16702;50.898;4.662;2023-06-14T14:21:37;31.40;52.90
29803;DHT22;16702;50.898;4.662;2023-06-14T14:24:08;31.70;54.10
29803;DHT22;16702;50.898;4.662;2023-06-14T14:26:38;31.60;54.10
29803;DHT22;16702;50.898;4.662;2023-06-14T14:29:12;31.70;55.50
29803;DHT22;16702;50.898;4.662;2023-06-14T14:31:42;31.90;53.80
29803;DHT22;16702;50.898;4.662;2023-06-14T14:34:13;31.90;53.50
29803;DHT22;16702;50.898;4.662;2023-06-14T14:36:44;32.00;53.30
29803;DHT22;16702;50.898;4.662;2023-06-14T14:39:15;32.00;54.00
29803;DHT22;16702;50.898;4.662;2023-06-14T14:41:45;31.80;53.40
29803;DHT22;16702;50.898;4.662;2023-06-14T14:44:18;31.80;53.70
29803;DHT22;16702;50.898;4.662;2023-06-14T14:46:49;31.80;54.40
29803;DHT22;16702;50.898;4.662;2023-06-14T14:49:20;32.00;53.80
29803;DHT22;16702;50.898;4.662;2023-06-14T14:51:50;32.00;53.50
29803;DHT22;16702;50.898;4.662;2023-06-14T14:54:21;32.10;52.80
29803;DHT22;16702;50.898;4.662;2023-06-14T14:56:52;32.20;53.60
29803;DHT22;16702;50.898;4.662;2023-06-14T14:59:26;32.20;53.60
29803;DHT22;16702;50.898;4.662;2023-06-14T15:01:56;32.20;54.10
29803;DHT22;16702;50.898;4.662;2023-06-14T15:04:27;32.10;53.40
29803;DHT22;16702;50.898;4.662;2023-06-14T15:06:58;32.10;53.90
29803;DHT22;16702;50.898;4.662;2023-06-14T15:09:29;32.10;54.00
29803;DHT22;16702;50.898;4.662;2023-06-14T15:11:59;32.00;53.00
29803;DHT22;16702;50.898;4.662;2023-06-14T15:14:33;32.10;54.20
29803;DHT22;16702;50.898;4.662;2023-06-14T15:17:04;32.20;53.50
29803;DHT22;16702;50.898;4.662;2023-06-14T15:19:35;32.10;54.00
29803;DHT22;16702;50.898;4.662;2023-06-14T15:22:06;32.00;53.60
29803;DHT22;16702;50.898;4.662;2023-06-14T15:24:36;32.20;54.20
29803;DHT22;16702;50.898;4.662;2023-06-14T15:27:11;32.50;53.70
29803;DHT22;16702;50.898;4.662;2023-06-14T15:29:45;32.60;53.40
29803;DHT22;16702;50.898;4.662;2023-06-14T15:32:18;32.30;53.40
29803;DHT22;16702;50.898;4.662;2023-06-14T15:34:48;32.20;53.30
29803;DHT22;16702;50.898;4.662;2023-06-14T15:37:19;32.30;52.90
29803;DHT22;16702;50.898;4.662;2023-06-14T15:39:50;32.30;54.60
29803;DHT22;16702;50.898;4.662;2023-06-14T15:42:20;32.50;53.60
29803;DHT22;16702;50.898;4.662;2023-06-14T15:44:53;32.60;53.90
29803;DHT22;16702;50.898;4.662;2023-06-14T15:47:24;32.60;54.60
29803;DHT22;16702;50.898;4.662;2023-06-14T15:49:55;32.60;54.00
29803;DHT22;16702;50.898;4.662;2023-06-14T15:52:25;32.50;54.30
29803;DHT22;16702;50.898;4.662;2023-06-14T15:54:55;32.70;53.90
29803;DHT22;16702;50.898;4.662;2023-06-14T15:57:26;32.50;52.70
29803;DHT22;16702;50.898;4.662;2023-06-14T15:59:59;32.50;53.10
29803;DHT22;16702;50.898;4.662;2023-06-14T16:02:31;32.60;53.20
29803;DHT22;16702;50.898;4.662;2023-06-14T16:05:01;32.50;52.30